sensor_id;sensor_type;location;lat;lon;timestamp;P1;durP1;ratioP1;P2;durP2;ratioP2
9459;SDS011;4768;42.664;23.240;2022-10-16T00:01:23;11.13;;;7.27;;
9459;SDS011;4768;42.664;23.240;2022-10-16T00:03:51;14.03;;;8.00;;
9459;SDS011;4768;42.664;23.240;2022-10-16T00:06:18;13.00;;;7.50;;
9459;SDS011;4768;42.664;23.240;2022-10-16T00:08:47;13.57;;;7.77;;
9459;SDS011;4768;42.664;23.240;2022-10-16T00:11:15;10.30;;;7.30;;
9459;SDS011;4768;42.664;23.240;2022-10-16T00:13:45;11.60;;;6.93;;
9459;SDS011;4768;42.664;23.240;2022-10-16T00:16:13;13.47;;;7.60;;
9459;SDS011;4768;42.664;23.240;2022-10-16T00:18:41;11.97;;;7.67;;
9459;SDS011;4768;42.664;23.240;2022-10-16T00:21:09;12.90;;;6.93;;
9459;SDS011;4768;42.664;23.240;2022-10-16T00:23:37;12.77;;;6.90;;
9459;SDS011;4768;42.664;23.240;2022-10-16T00:26:05;16.23;;;8.17;;
9459;SDS011;4768;42.664;23.240;2022-10-16T00:28:34;12.33;;;7.30;;
9459;SDS011;4768;42.664;23.240;2022-10-16T00:31:04;13.97;;;7.87;;
9459;SDS011;4768;42.664;23.240;2022-10-16T00:33:33;14.33;;;7.97;;
9459;SDS011;4768;42.664;23.240;2022-10-16T00:36:00;11.07;;;7.63;;
9459;SDS011;4768;42.664;23.240;2022-10-16T00:38:28;10.07;;;6.57;;
9459;SDS011;4768;42.664;23.240;2022-10-16T00:40:56;15.60;;;7.27;;
9459;SDS011;4768;42.664;23.240;2022-10-16T00:43:33;12.00;;;7.60;;
9459;SDS011;4768;42.664;23.240;2022-10-16T00:46:05;13.87;;;7.13;;
9459;SDS011;4768;42.664;23.240;2022-10-16T00:48:36;10.70;;;7.47;;
9459;SDS011;4768;42.664;23.240;2022-10-16T00:51:03;11.67;;;7.80;;
9459;SDS011;4768;42.664;23.240;2022-10-16T00:53:32;9.53;;;6.73;;
9459;SDS011;4768;42.664;23.240;2022-10-16T00:55:59;13.00;;;7.80;;
9459;SDS011;4768;42.664;23.240;2022-10-16T00:58:27;10.87;;;7.37;;
9459;SDS011;4768;42.664;23.240;2022-10-16T01:00:53;11.90;;;7.03;;
9459;SDS011;4768;42.664;23.240;2022-10-16T01:03:27;14.27;;;8.57;;
9459;SDS011;4768;42.664;23.240;2022-10-16T01:05:58;13.93;;;8.30;;
9459;SDS011;4768;42.664;23.240;2022-10-16T01:08:37;12.00;;;8.03;;
9459;SDS011;4768;42.664;23.240;2022-10-16T01:11:11;11.73;;;7.63;;
9459;SDS011;4768;42.664;23.240;2022-10-16T01:13:46;21.77;;;8.03;;
9459;SDS011;4768;42.664;23.240;2022-10-16T01:16:20;11.17;;;7.70;;
9459;SDS011;4768;42.664;23.240;2022-10-16T01:19:00;10.43;;;7.80;;
9459;SDS011;4768;42.664;23.240;2022-10-16T01:21:36;11.00;;;7.67;;
9459;SDS011;4768;42.664;23.240;2022-10-16T01:24:07;13.50;;;8.40;;
9459;SDS011;4768;42.664;23.240;2022-10-16T01:26:48;13.20;;;8.20;;
9459;SDS011;4768;42.664;23.240;2022-10-16T01:29:28;12.60;;;8.20;;
9459;SDS011;4768;42.664;23.240;2022-10-16T01:32:00;10.20;;;7.67;;
9459;SDS011;4768;42.664;23.240;2022-10-16T01:34:37;12.17;;;7.33;;
9459;SDS011;4768;42.664;23.240;2022-10-16T01:37:12;13.13;;;7.90;;
9459;SDS011;4768;42.664;23.240;2022-10-16T01:39:42;11.87;;;8.00;;
9459;SDS011;4768;42.664;23.240;2022-10-16T01:42:14;12.87;;;8.17;;
9459;SDS011;4768;42.664;23.240;2022-10-16T01:44:45;13.00;;;8.83;;
9459;SDS011;4768;42.664;23.240;2022-10-16T01:47:13;10.67;;;7.30;;
9459;SDS011;4768;42.664;23.240;2022-10-16T01:49:41;9.77;;;7.63;;
9459;SDS011;4768;42.664;23.240;2022-10-16T01:52:11;16.00;;;7.40;;
9459;SDS011;4768;42.664;23.240;2022-10-16T01:54:42;11.70;;;7.60;;
9459;SDS011;4768;42.664;23.240;2022-10-16T01:57:13;13.80;;;7.80;;
9459;SDS011;4768;42.664;23.240;2022-10-16T01:59:43;11.43;;;8.17;;
9459;SDS011;4768;42.664;23.240;2022-10-16T02:02:13;12.63;;;7.63;;
9459;SDS011;4768;42.664;23.240;2022-10-16T02:04:42;15.00;;;8.93;;
9459;SDS011;4768;42.664;23.240;2022-10-16T02:07:12;14.83;;;8.30;;
9459;SDS011;4768;42.664;23.240;2022-10-16T02:09:39;11.27;;;8.67;;
9459;SDS011;4768;42.664;23.240;2022-10-16T02:12:08;14.67;;;8.53;;
9459;SDS011;4768;42.664;23.240;2022-10-16T02:14:40;10.37;;;7.93;;
9459;SDS011;4768;42.664;23.240;2022-10-16T02:17:11;17.37;;;9.47;;
9459;SDS011;4768;42.664;23.240;2022-10-16T02:19:40;11.87;;;8.13;;
9459;SDS011;4768;42.664;23.240;2022-10-16T02:22:08;13.10;;;9.03;;
9459;SDS011;4768;42.664;23.240;2022-10-16T02:24:42;12.70;;;8.57;;
9459;SDS011;4768;42.664;23.240;2022-10-16T02:27:16;14.07;;;8.93;;
9459;SDS011;4768;42.664;23.240;2022-10-16T02:29:51;15.93;;;8.90;;
9459;SDS011;4768;42.664;23.240;2022-10-16T02:32:24;12.57;;;8.30;;
9459;SDS011;4768;42.664;23.240;2022-10-16T02:34:56;15.50;;;8.43;;
9459;SDS011;4768;42.664;23.240;2022-10-16T02:37:25;15.50;;;8.77;;
9459;SDS011;4768;42.664;23.240;2022-10-16T02:39:54;12.23;;;8.17;;
9459;SDS011;4768;42.664;23.240;2022-10-16T02:42:27;14.03;;;8.03;;
9459;SDS011;4768;42.664;23.240;2022-10-16T02:44:56;13.17;;;8.50;;
9459;SDS011;4768;42.664;23.240;2022-10-16T02:47:22;12.80;;;8.87;;
9459;SDS011;4768;42.664;23.240;2022-10-16T02:49:49;12.37;;;8.80;;
9459;SDS011;4768;42.664;23.240;2022-10-16T02:52:17;12.63;;;8.73;;
9459;SDS011;4768;42.664;23.240;2022-10-16T02:54:44;14.40;;;8.97;;
9459;SDS011;4768;42.664;23.240;2022-10-16T02:57:11;19.07;;;9.10;;
9459;SDS011;4768;42.664;23.240;2022-10-16T02:59:38;11.80;;;8.43;;
9459;SDS011;4768;42.664;23.240;2022-10-16T03:02:06;13.83;;;8.43;;
9459;SDS011;4768;42.664;23.240;2022-10-16T03:04:33;12.83;;;8.47;;
9459;SDS011;4768;42.664;23.240;2022-10-16T03:07:00;15.03;;;9.10;;
9459;SDS011;4768;42.664;23.240;2022-10-16T03:09:27;10.60;;;7.57;;
9459;SDS011;4768;42.664;23.240;2022-10-16T03:11:53;12.20;;;8.70;;
9459;SDS011;4768;42.664;23.240;2022-10-16T03:14:20;12.30;;;8.30;;
9459;SDS011;4768;42.664;23.240;2022-10-16T03:16:47;15.27;;;9.17;;
9459;SDS011;4768;42.664;23.240;2022-10-16T03:19:17;12.97;;;8.73;;
9459;SDS011;4768;42.664;23.240;2022-10-16T03:21:44;12.77;;;9.00;;
9459;SDS011;4768;42.664;23.240;2022-10-16T03:24:11;10.70;;;8.30;;
9459;SDS011;4768;42.664;23.240;2022-10-16T03:26:38;12.13;;;8.63;;
9459;SDS011;4768;42.664;23.240;2022-10-16T03:29:04;14.37;;;8.13;;
9459;SDS011;4768;42.664;23.240;2022-10-16T03:31:31;13.90;;;8.97;;
9459;SDS011;4768;42.664;23.240;2022-10-16T03:33:58;12.47;;;8.67;;
9459;SDS011;4768;42.664;23.240;2022-10-16T03:36:26;11.10;;;7.83;;
9459;SDS011;4768;42.664;23.240;2022-10-16T03:38:53;13.50;;;8.47;;
9459;SDS011;4768;42.664;23.240;2022-10-16T03:41:20;12.87;;;8.83;;
9459;SDS011;4768;42.664;23.240;2022-10-16T03:43:47;18.10;;;10.90;;
9459;SDS011;4768;42.664;23.240;2022-10-16T03:46:13;23.40;;;10.87;;
9459;SDS011;4768;42.664;23.240;2022-10-16T03:48:40;16.53;;;10.47;;
9459;SDS011;4768;42.664;23.240;2022-10-16T03:51:07;14.37;;;10.10;;
9459;SDS011;4768;42.664;23.240;2022-10-16T03:53:35;13.00;;;9.10;;
9459;SDS011;4768;42.664;23.240;2022-10-16T03:56:02;16.33;;;12.07;;
9459;SDS011;4768;42.664;23.240;2022-10-16T03:58:29;22.77;;;19.10;;
9459;SDS011;4768;42.664;23.240;2022-10-16T04:00:55;14.03;;;8.77;;
9459;SDS011;4768;42.664;23.240;2022-10-16T04:03:22;13.10;;;9.03;;
9459;SDS011;4768;42.664;23.240;2022-10-16T04:05:49;13.03;;;8.70;;
9459;SDS011;4768;42.664;23.240;2022-10-16T04:08:16;14.37;;;9.30;;
9459;SDS011;4768;42.664;23.240;2022-10-16T04:10:44;16.07;;;8.10;;
9459;SDS011;4768;42.664;23.240;2022-10-16T04:13:11;11.87;;;8.87;;
9459;SDS011;4768;42.664;23.240;2022-10-16T04:15:38;16.97;;;8.67;;
9459;SDS011;4768;42.664;23.240;2022-10-16T04:18:05;15.30;;;8.63;;
9459;SDS011;4768;42.664;23.240;2022-10-16T04:20:32;12.80;;;9.30;;
9459;SDS011;4768;42.664;23.240;2022-10-16T04:22:59;11.27;;;8.43;;
9459;SDS011;4768;42.664;23.240;2022-10-16T04:25:26;12.80;;;9.80;;
9459;SDS011;4768;42.664;23.240;2022-10-16T04:27:54;14.80;;;9.93;;
9459;SDS011;4768;42.664;23.240;2022-10-16T04:30:22;15.57;;;9.87;;
9459;SDS011;4768;42.664;23.240;2022-10-16T04:32:49;14.03;;;8.97;;
9459;SDS011;4768;42.664;23.240;2022-10-16T04:35:16;14.30;;;8.93;;
9459;SDS011;4768;42.664;23.240;2022-10-16T04:37:44;12.90;;;9.00;;
9459;SDS011;4768;42.664;23.240;2022-10-16T04:40:10;16.53;;;9.13;;
9459;SDS011;4768;42.664;23.240;2022-10-16T04:42:37;15.30;;;9.83;;
9459;SDS011;4768;42.664;23.240;2022-10-16T04:45:06;15.33;;;9.37;;
9459;SDS011;4768;42.664;23.240;2022-10-16T04:47:33;12.90;;;8.70;;
9459;SDS011;4768;42.664;23.240;2022-10-16T04:50:00;12.83;;;9.03;;
9459;SDS011;4768;42.664;23.240;2022-10-16T04:52:27;12.93;;;9.13;;
9459;SDS011;4768;42.664;23.240;2022-10-16T04:54:54;15.53;;;10.13;;
9459;SDS011;4768;42.664;23.240;2022-10-16T04:57:25;16.30;;;12.70;;
9459;SDS011;4768;42.664;23.240;2022-10-16T04:59:52;16.27;;;11.47;;
9459;SDS011;4768;42.664;23.240;2022-10-16T05:02:21;18.13;;;12.37;;
9459;SDS011;4768;42.664;23.240;2022-10-16T05:04:47;15.27;;;11.43;;
9459;SDS011;4768;42.664;23.240;2022-10-16T05:07:14;15.90;;;11.20;;
9459;SDS011;4768;42.664;23.240;2022-10-16T05:09:41;19.53;;;11.43;;
9459;SDS011;4768;42.664;23.240;2022-10-16T05:12:08;18.10;;;12.00;;
9459;SDS011;4768;42.664;23.240;2022-10-16T05:14:35;22.87;;;11.20;;
9459;SDS011;4768;42.664;23.240;2022-10-16T05:17:01;15.27;;;10.90;;
9459;SDS011;4768;42.664;23.240;2022-10-16T05:19:30;24.80;;;13.67;;
9459;SDS011;4768;42.664;23.240;2022-10-16T05:21:56;24.63;;;14.40;;
9459;SDS011;4768;42.664;23.240;2022-10-16T05:24:23;19.70;;;12.43;;
9459;SDS011;4768;42.664;23.240;2022-10-16T05:26:50;18.10;;;10.50;;
9459;SDS011;4768;42.664;23.240;2022-10-16T05:29:17;25.20;;;14.17;;
9459;SDS011;4768;42.664;23.240;2022-10-16T05:31:44;36.57;;;22.07;;
9459;SDS011;4768;42.664;23.240;2022-10-16T05:34:10;23.50;;;13.83;;
9459;SDS011;4768;42.664;23.240;2022-10-16T05:36:39;15.50;;;11.07;;
9459;SDS011;4768;42.664;23.240;2022-10-16T05:39:05;13.83;;;10.43;;
9459;SDS011;4768;42.664;23.240;2022-10-16T05:41:32;16.07;;;11.23;;
9459;SDS011;4768;42.664;23.240;2022-10-16T05:43:59;16.50;;;10.67;;
9459;SDS011;4768;42.664;23.240;2022-10-16T05:46:26;16.43;;;10.37;;
9459;SDS011;4768;42.664;23.240;2022-10-16T05:48:52;15.47;;;9.97;;
9459;SDS011;4768;42.664;23.240;2022-10-16T05:51:19;15.07;;;10.13;;
9459;SDS011;4768;42.664;23.240;2022-10-16T05:53:47;15.33;;;9.60;;
9459;SDS011;4768;42.664;23.240;2022-10-16T05:56:14;18.37;;;12.13;;
9459;SDS011;4768;42.664;23.240;2022-10-16T05:58:41;15.03;;;10.77;;
9459;SDS011;4768;42.664;23.240;2022-10-16T06:01:10;17.73;;;12.47;;
9459;SDS011;4768;42.664;23.240;2022-10-16T06:03:39;16.30;;;10.93;;
9459;SDS011;4768;42.664;23.240;2022-10-16T06:06:09;21.47;;;13.73;;
9459;SDS011;4768;42.664;23.240;2022-10-16T06:08:37;37.00;;;26.23;;
9459;SDS011;4768;42.664;23.240;2022-10-16T06:11:06;38.33;;;27.63;;
9459;SDS011;4768;42.664;23.240;2022-10-16T06:13:34;18.20;;;10.77;;
9459;SDS011;4768;42.664;23.240;2022-10-16T06:16:01;14.40;;;9.90;;
9459;SDS011;4768;42.664;23.240;2022-10-16T06:18:29;13.50;;;10.33;;
9459;SDS011;4768;42.664;23.240;2022-10-16T06:20:56;14.97;;;10.80;;
9459;SDS011;4768;42.664;23.240;2022-10-16T06:23:23;15.03;;;10.00;;
9459;SDS011;4768;42.664;23.240;2022-10-16T06:25:50;12.67;;;9.63;;
9459;SDS011;4768;42.664;23.240;2022-10-16T06:28:19;13.17;;;9.07;;
9459;SDS011;4768;42.664;23.240;2022-10-16T06:30:45;15.40;;;9.67;;
9459;SDS011;4768;42.664;23.240;2022-10-16T06:33:12;16.70;;;10.07;;
9459;SDS011;4768;42.664;23.240;2022-10-16T06:35:39;13.33;;;9.93;;
9459;SDS011;4768;42.664;23.240;2022-10-16T06:38:06;15.07;;;9.33;;
9459;SDS011;4768;42.664;23.240;2022-10-16T06:40:32;14.50;;;9.43;;
9459;SDS011;4768;42.664;23.240;2022-10-16T06:42:59;12.33;;;10.20;;
9459;SDS011;4768;42.664;23.240;2022-10-16T06:45:27;16.27;;;10.10;;
9459;SDS011;4768;42.664;23.240;2022-10-16T06:47:54;19.00;;;11.13;;
9459;SDS011;4768;42.664;23.240;2022-10-16T06:50:21;16.80;;;10.60;;
9459;SDS011;4768;42.664;23.240;2022-10-16T06:52:47;14.47;;;10.40;;
9459;SDS011;4768;42.664;23.240;2022-10-16T06:55:14;17.37;;;10.10;;
9459;SDS011;4768;42.664;23.240;2022-10-16T06:57:42;17.77;;;11.20;;
9459;SDS011;4768;42.664;23.240;2022-10-16T07:00:09;15.27;;;10.87;;
9459;SDS011;4768;42.664;23.240;2022-10-16T07:02:37;14.60;;;11.27;;
9459;SDS011;4768;42.664;23.240;2022-10-16T07:05:04;14.47;;;10.50;;
9459;SDS011;4768;42.664;23.240;2022-10-16T07:07:31;14.17;;;10.43;;
9459;SDS011;4768;42.664;23.240;2022-10-16T07:09:58;15.00;;;10.87;;
9459;SDS011;4768;42.664;23.240;2022-10-16T07:12:24;17.50;;;11.03;;
9459;SDS011;4768;42.664;23.240;2022-10-16T07:14:51;12.60;;;10.00;;
9459;SDS011;4768;42.664;23.240;2022-10-16T07:17:19;14.67;;;11.00;;
9459;SDS011;4768;42.664;23.240;2022-10-16T07:19:48;13.13;;;10.00;;
9459;SDS011;4768;42.664;23.240;2022-10-16T07:22:17;12.80;;;10.07;;
9459;SDS011;4768;42.664;23.240;2022-10-16T07:24:44;12.20;;;9.90;;
9459;SDS011;4768;42.664;23.240;2022-10-16T07:27:11;13.87;;;9.60;;
9459;SDS011;4768;42.664;23.240;2022-10-16T07:29:38;15.20;;;9.03;;
9459;SDS011;4768;42.664;23.240;2022-10-16T07:32:05;14.87;;;8.83;;
9459;SDS011;4768;42.664;23.240;2022-10-16T07:34:32;9.73;;;8.10;;
9459;SDS011;4768;42.664;23.240;2022-10-16T07:37:00;18.40;;;8.50;;
9459;SDS011;4768;42.664;23.240;2022-10-16T07:39:26;9.67;;;7.57;;
9459;SDS011;4768;42.664;23.240;2022-10-16T07:41:53;12.87;;;8.60;;
9459;SDS011;4768;42.664;23.240;2022-10-16T07:44:20;11.37;;;8.80;;
9459;SDS011;4768;42.664;23.240;2022-10-16T07:46:46;16.40;;;10.70;;
9459;SDS011;4768;42.664;23.240;2022-10-16T07:49:13;12.30;;;9.03;;
9459;SDS011;4768;42.664;23.240;2022-10-16T07:51:40;15.07;;;9.50;;
9459;SDS011;4768;42.664;23.240;2022-10-16T07:54:09;13.43;;;10.23;;
9459;SDS011;4768;42.664;23.240;2022-10-16T07:56:36;12.93;;;10.27;;
9459;SDS011;4768;42.664;23.240;2022-10-16T07:59:03;16.77;;;11.87;;
9459;SDS011;4768;42.664;23.240;2022-10-16T08:01:29;13.17;;;9.47;;
9459;SDS011;4768;42.664;23.240;2022-10-16T08:03:56;13.73;;;9.47;;
9459;SDS011;4768;42.664;23.240;2022-10-16T08:06:23;13.40;;;8.63;;
9459;SDS011;4768;42.664;23.240;2022-10-16T08:08:50;13.50;;;8.43;;
9459;SDS011;4768;42.664;23.240;2022-10-16T08:11:18;10.60;;;9.10;;
9459;SDS011;4768;42.664;23.240;2022-10-16T08:13:45;13.30;;;9.07;;
9459;SDS011;4768;42.664;23.240;2022-10-16T08:16:11;9.63;;;7.97;;
9459;SDS011;4768;42.664;23.240;2022-10-16T08:18:38;13.60;;;9.27;;
9459;SDS011;4768;42.664;23.240;2022-10-16T08:21:07;10.93;;;7.80;;
9459;SDS011;4768;42.664;23.240;2022-10-16T08:23:39;11.53;;;8.93;;
9459;SDS011;4768;42.664;23.240;2022-10-16T08:26:06;14.03;;;8.93;;
9459;SDS011;4768;42.664;23.240;2022-10-16T08:28:35;14.37;;;9.43;;
9459;SDS011;4768;42.664;23.240;2022-10-16T08:31:06;13.90;;;10.20;;
9459;SDS011;4768;42.664;23.240;2022-10-16T08:33:35;20.23;;;11.47;;
9459;SDS011;4768;42.664;23.240;2022-10-16T08:36:02;13.80;;;10.00;;
9459;SDS011;4768;42.664;23.240;2022-10-16T08:38:29;11.53;;;9.30;;
9459;SDS011;4768;42.664;23.240;2022-10-16T08:40:57;13.43;;;10.00;;
9459;SDS011;4768;42.664;23.240;2022-10-16T08:43:39;12.03;;;9.27;;
9459;SDS011;4768;42.664;23.240;2022-10-16T08:46:31;15.23;;;9.30;;
9459;SDS011;4768;42.664;23.240;2022-10-16T08:49:05;13.57;;;8.93;;
9459;SDS011;4768;42.664;23.240;2022-10-16T08:51:37;12.67;;;9.10;;
9459;SDS011;4768;42.664;23.240;2022-10-16T08:54:05;8.80;;;7.60;;
9459;SDS011;4768;42.664;23.240;2022-10-16T08:56:41;9.20;;;7.67;;
9459;SDS011;4768;42.664;23.240;2022-10-16T08:59:10;9.43;;;7.33;;
9459;SDS011;4768;42.664;23.240;2022-10-16T09:01:40;9.40;;;6.83;;
9459;SDS011;4768;42.664;23.240;2022-10-16T09:04:21;8.07;;;6.17;;
9459;SDS011;4768;42.664;23.240;2022-10-16T09:07:09;9.43;;;6.20;;
9459;SDS011;4768;42.664;23.240;2022-10-16T09:09:45;10.20;;;5.40;;
9459;SDS011;4768;42.664;23.240;2022-10-16T09:12:26;6.23;;;4.83;;
9459;SDS011;4768;42.664;23.240;2022-10-16T09:15:03;9.07;;;4.80;;
9459;SDS011;4768;42.664;23.240;2022-10-16T09:17:41;19.77;;;11.23;;
9459;SDS011;4768;42.664;23.240;2022-10-16T09:20:18;8.00;;;4.47;;
9459;SDS011;4768;42.664;23.240;2022-10-16T09:22:53;5.13;;;4.03;;
9459;SDS011;4768;42.664;23.240;2022-10-16T09:25:34;5.40;;;3.80;;
9459;SDS011;4768;42.664;23.240;2022-10-16T09:28:02;9.03;;;3.80;;
9459;SDS011;4768;42.664;23.240;2022-10-16T09:30:30;5.53;;;3.57;;
9459;SDS011;4768;42.664;23.240;2022-10-16T09:32:57;8.77;;;3.93;;
9459;SDS011;4768;42.664;23.240;2022-10-16T09:35:27;6.73;;;3.57;;
9459;SDS011;4768;42.664;23.240;2022-10-16T09:37:59;5.93;;;4.13;;
9459;SDS011;4768;42.664;23.240;2022-10-16T09:40:26;3.80;;;3.40;;
9459;SDS011;4768;42.664;23.240;2022-10-16T09:42:57;4.70;;;4.10;;
9459;SDS011;4768;42.664;23.240;2022-10-16T09:45:29;5.10;;;3.40;;
9459;SDS011;4768;42.664;23.240;2022-10-16T09:47:56;5.83;;;3.93;;
9459;SDS011;4768;42.664;23.240;2022-10-16T09:50:24;5.10;;;4.10;;
9459;SDS011;4768;42.664;23.240;2022-10-16T09:53:02;4.87;;;3.57;;
9459;SDS011;4768;42.664;23.240;2022-10-16T09:55:30;4.77;;;3.20;;
9459;SDS011;4768;42.664;23.240;2022-10-16T09:57:57;4.27;;;3.43;;
9459;SDS011;4768;42.664;23.240;2022-10-16T10:00:24;5.50;;;3.53;;
9459;SDS011;4768;42.664;23.240;2022-10-16T10:02:52;6.23;;;3.70;;
9459;SDS011;4768;42.664;23.240;2022-10-16T10:05:21;4.70;;;2.87;;
9459;SDS011;4768;42.664;23.240;2022-10-16T10:07:53;4.07;;;2.70;;
9459;SDS011;4768;42.664;23.240;2022-10-16T10:10:23;4.93;;;2.90;;
9459;SDS011;4768;42.664;23.240;2022-10-16T10:12:54;4.33;;;3.10;;
9459;SDS011;4768;42.664;23.240;2022-10-16T10:15:22;4.33;;;3.27;;
9459;SDS011;4768;42.664;23.240;2022-10-16T10:17:55;6.20;;;3.10;;
9459;SDS011;4768;42.664;23.240;2022-10-16T10:20:24;4.97;;;3.00;;
9459;SDS011;4768;42.664;23.240;2022-10-16T10:22:54;3.33;;;2.97;;
9459;SDS011;4768;42.664;23.240;2022-10-16T10:28:25;4.13;;;3.33;;
9459;SDS011;4768;42.664;23.240;2022-10-16T10:31:06;2.97;;;2.67;;
9459;SDS011;4768;42.664;23.240;2022-10-16T10:33:43;4.13;;;2.80;;
9459;SDS011;4768;42.664;23.240;2022-10-16T10:38:58;3.87;;;2.80;;
9459;SDS011;4768;42.664;23.240;2022-10-16T10:41:43;3.20;;;2.87;;
9459;SDS011;4768;42.664;23.240;2022-10-16T10:44:33;8.07;;;3.70;;
9459;SDS011;4768;42.664;23.240;2022-10-16T10:47:19;3.37;;;3.03;;
9459;SDS011;4768;42.664;23.240;2022-10-16T10:49:57;4.03;;;3.20;;
9459;SDS011;4768;42.664;23.240;2022-10-16T10:52:41;5.57;;;3.40;;
9459;SDS011;4768;42.664;23.240;2022-10-16T10:55:19;8.33;;;3.27;;
9459;SDS011;4768;42.664;23.240;2022-10-16T11:00:59;4.30;;;2.70;;
9459;SDS011;4768;42.664;23.240;2022-10-16T11:03:42;3.10;;;2.60;;
9459;SDS011;4768;42.664;23.240;2022-10-16T11:06:22;3.37;;;2.57;;
9459;SDS011;4768;42.664;23.240;2022-10-16T11:08:53;4.47;;;3.60;;
9459;SDS011;4768;42.664;23.240;2022-10-16T11:11:25;3.00;;;2.67;;
9459;SDS011;4768;42.664;23.240;2022-10-16T11:13:59;3.57;;;2.57;;
9459;SDS011;4768;42.664;23.240;2022-10-16T11:16:31;2.77;;;2.50;;
9459;SDS011;4768;42.664;23.240;2022-10-16T11:19:04;4.23;;;2.60;;
9459;SDS011;4768;42.664;23.240;2022-10-16T11:21:42;3.20;;;2.63;;
9459;SDS011;4768;42.664;23.240;2022-10-16T11:24:16;2.57;;;2.27;;
9459;SDS011;4768;42.664;23.240;2022-10-16T11:26:49;4.63;;;2.43;;
9459;SDS011;4768;42.664;23.240;2022-10-16T11:29:22;4.90;;;2.80;;
9459;SDS011;4768;42.664;23.240;2022-10-16T11:31:55;3.37;;;2.67;;
9459;SDS011;4768;42.664;23.240;2022-10-16T11:34:27;4.07;;;3.00;;
9459;SDS011;4768;42.664;23.240;2022-10-16T11:37:01;4.00;;;2.63;;
9459;SDS011;4768;42.664;23.240;2022-10-16T11:39:32;2.50;;;2.30;;
9459;SDS011;4768;42.664;23.240;2022-10-16T11:42:01;3.37;;;2.57;;
9459;SDS011;4768;42.664;23.240;2022-10-16T11:44:38;2.97;;;2.17;;
9459;SDS011;4768;42.664;23.240;2022-10-16T11:47:16;2.80;;;2.10;;
9459;SDS011;4768;42.664;23.240;2022-10-16T11:49:52;7.10;;;2.30;;
9459;SDS011;4768;42.664;23.240;2022-10-16T11:52:28;6.40;;;2.50;;
9459;SDS011;4768;42.664;23.240;2022-10-16T11:55:03;3.83;;;2.20;;
9459;SDS011;4768;42.664;23.240;2022-10-16T11:57:38;3.20;;;2.50;;
9459;SDS011;4768;42.664;23.240;2022-10-16T12:00:08;4.07;;;2.00;;
9459;SDS011;4768;42.664;23.240;2022-10-16T12:02:45;2.73;;;2.00;;
9459;SDS011;4768;42.664;23.240;2022-10-16T12:05:23;2.43;;;2.00;;
9459;SDS011;4768;42.664;23.240;2022-10-16T12:08:02;2.67;;;2.30;;
9459;SDS011;4768;42.664;23.240;2022-10-16T12:10:34;2.40;;;1.97;;
9459;SDS011;4768;42.664;23.240;2022-10-16T12:13:02;4.53;;;2.57;;
9459;SDS011;4768;42.664;23.240;2022-10-16T12:15:30;4.07;;;2.77;;
9459;SDS011;4768;42.664;23.240;2022-10-16T12:17:58;3.87;;;2.60;;
9459;SDS011;4768;42.664;23.240;2022-10-16T12:20:26;3.67;;;2.43;;
9459;SDS011;4768;42.664;23.240;2022-10-16T12:22:57;2.73;;;1.90;;
9459;SDS011;4768;42.664;23.240;2022-10-16T12:25:28;2.77;;;2.20;;
9459;SDS011;4768;42.664;23.240;2022-10-16T12:28:04;3.03;;;2.40;;
9459;SDS011;4768;42.664;23.240;2022-10-16T12:30:33;4.93;;;1.80;;
9459;SDS011;4768;42.664;23.240;2022-10-16T12:33:02;3.80;;;2.33;;
9459;SDS011;4768;42.664;23.240;2022-10-16T12:35:32;3.67;;;2.47;;
9459;SDS011;4768;42.664;23.240;2022-10-16T12:38:04;3.53;;;2.80;;
9459;SDS011;4768;42.664;23.240;2022-10-16T12:40:35;2.93;;;2.47;;
9459;SDS011;4768;42.664;23.240;2022-10-16T12:43:23;4.87;;;2.50;;
9459;SDS011;4768;42.664;23.240;2022-10-16T12:45:59;6.17;;;3.10;;
9459;SDS011;4768;42.664;23.240;2022-10-16T12:48:28;4.13;;;2.80;;
9459;SDS011;4768;42.664;23.240;2022-10-16T12:50:56;4.00;;;2.97;;
9459;SDS011;4768;42.664;23.240;2022-10-16T12:53:23;3.77;;;2.80;;
9459;SDS011;4768;42.664;23.240;2022-10-16T12:55:57;5.20;;;2.63;;
9459;SDS011;4768;42.664;23.240;2022-10-16T12:58:46;5.70;;;2.53;;
9459;SDS011;4768;42.664;23.240;2022-10-16T13:01:31;2.67;;;2.40;;
9459;SDS011;4768;42.664;23.240;2022-10-16T13:07:12;3.43;;;2.60;;
9459;SDS011;4768;42.664;23.240;2022-10-16T13:09:50;3.63;;;2.53;;
9459;SDS011;4768;42.664;23.240;2022-10-16T13:12:39;6.17;;;3.03;;
9459;SDS011;4768;42.664;23.240;2022-10-16T13:18:06;7.13;;;3.10;;
9459;SDS011;4768;42.664;23.240;2022-10-16T13:20:44;4.70;;;3.30;;
9459;SDS011;4768;42.664;23.240;2022-10-16T13:23:23;4.33;;;2.77;;
9459;SDS011;4768;42.664;23.240;2022-10-16T13:26:00;3.50;;;2.70;;
9459;SDS011;4768;42.664;23.240;2022-10-16T13:28:37;3.97;;;2.60;;
9459;SDS011;4768;42.664;23.240;2022-10-16T13:31:04;2.37;;;2.17;;
9459;SDS011;4768;42.664;23.240;2022-10-16T13:33:39;5.07;;;3.00;;
9459;SDS011;4768;42.664;23.240;2022-10-16T13:36:17;4.57;;;2.50;;
9459;SDS011;4768;42.664;23.240;2022-10-16T13:38:46;5.27;;;3.40;;
9459;SDS011;4768;42.664;23.240;2022-10-16T13:41:14;6.87;;;3.20;;
9459;SDS011;4768;42.664;23.240;2022-10-16T13:43:44;15.10;;;10.20;;
9459;SDS011;4768;42.664;23.240;2022-10-16T13:46:15;8.63;;;5.97;;
9459;SDS011;4768;42.664;23.240;2022-10-16T13:48:44;8.27;;;6.80;;
9459;SDS011;4768;42.664;23.240;2022-10-16T13:51:12;6.03;;;2.47;;
9459;SDS011;4768;42.664;23.240;2022-10-16T13:53:40;4.13;;;2.50;;
9459;SDS011;4768;42.664;23.240;2022-10-16T13:56:10;3.90;;;2.77;;
9459;SDS011;4768;42.664;23.240;2022-10-16T13:58:39;5.27;;;2.83;;
9459;SDS011;4768;42.664;23.240;2022-10-16T14:01:14;4.63;;;2.53;;
9459;SDS011;4768;42.664;23.240;2022-10-16T14:03:43;3.07;;;1.93;;
9459;SDS011;4768;42.664;23.240;2022-10-16T14:06:11;3.27;;;2.27;;
9459;SDS011;4768;42.664;23.240;2022-10-16T14:08:43;4.30;;;2.53;;
9459;SDS011;4768;42.664;23.240;2022-10-16T14:11:19;2.87;;;2.33;;
9459;SDS011;4768;42.664;23.240;2022-10-16T14:13:47;2.50;;;2.10;;
9459;SDS011;4768;42.664;23.240;2022-10-16T14:16:18;5.27;;;2.53;;
9459;SDS011;4768;42.664;23.240;2022-10-16T14:18:46;3.10;;;2.40;;
9459;SDS011;4768;42.664;23.240;2022-10-16T14:21:21;3.07;;;2.23;;
9459;SDS011;4768;42.664;23.240;2022-10-16T14:23:48;2.60;;;2.30;;
9459;SDS011;4768;42.664;23.240;2022-10-16T14:26:16;3.67;;;2.67;;
9459;SDS011;4768;42.664;23.240;2022-10-16T14:28:46;9.03;;;2.70;;
9459;SDS011;4768;42.664;23.240;2022-10-16T14:31:23;3.77;;;2.50;;
9459;SDS011;4768;42.664;23.240;2022-10-16T14:33:52;3.83;;;2.83;;
9459;SDS011;4768;42.664;23.240;2022-10-16T14:36:19;4.50;;;2.37;;
9459;SDS011;4768;42.664;23.240;2022-10-16T14:38:48;3.30;;;2.43;;
9459;SDS011;4768;42.664;23.240;2022-10-16T14:41:20;3.97;;;2.30;;
9459;SDS011;4768;42.664;23.240;2022-10-16T14:43:49;5.60;;;2.30;;
9459;SDS011;4768;42.664;23.240;2022-10-16T14:46:20;3.63;;;2.40;;
9459;SDS011;4768;42.664;23.240;2022-10-16T14:48:57;4.00;;;2.20;;
9459;SDS011;4768;42.664;23.240;2022-10-16T14:51:27;4.87;;;2.80;;
9459;SDS011;4768;42.664;23.240;2022-10-16T14:53:55;3.23;;;2.67;;
9459;SDS011;4768;42.664;23.240;2022-10-16T14:56:23;4.37;;;2.70;;
9459;SDS011;4768;42.664;23.240;2022-10-16T14:58:51;4.87;;;2.73;;
9459;SDS011;4768;42.664;23.240;2022-10-16T15:01:19;4.43;;;2.37;;
9459;SDS011;4768;42.664;23.240;2022-10-16T15:03:47;4.90;;;2.60;;
9459;SDS011;4768;42.664;23.240;2022-10-16T15:06:15;5.37;;;2.97;;
9459;SDS011;4768;42.664;23.240;2022-10-16T15:08:42;3.20;;;2.43;;
9459;SDS011;4768;42.664;23.240;2022-10-16T15:11:10;8.50;;;3.07;;
9459;SDS011;4768;42.664;23.240;2022-10-16T15:13:38;6.27;;;2.67;;
9459;SDS011;4768;42.664;23.240;2022-10-16T15:16:07;3.90;;;2.63;;
9459;SDS011;4768;42.664;23.240;2022-10-16T15:18:36;11.27;;;3.10;;
9459;SDS011;4768;42.664;23.240;2022-10-16T15:21:05;6.57;;;2.80;;
9459;SDS011;4768;42.664;23.240;2022-10-16T15:23:32;5.53;;;2.50;;